Time;durP1;ratioP1;P1;durP2;ratioP2;P2;SDS_P1;SDS_P2;PMS_P1;PMS_P2;Temp;Humidity;BMP_temperature;BMP_pressure;BME280_temperature;BME280_humidity;BME280_pressure;Samples;Min_cycle;Max_cycle;Signal;HPM_P1;HPM_P2
2023/06/03 00:01:50;;;;;;;15.60;6.80;;;;;;;;;;5076100;28;20201;-88
2023/06/03 00:04:17;;;;;;;14.67;7.10;;;;;;;;;;5075865;28;20201;-87
2023/06/03 00:06:45;;;;;;;19.07;7.40;;;;;;;;;;5075425;28;20203;-87
2023/06/03 00:09:13;;;;;;;20.90;7.27;;;;;;;;;;5075840;28;20222;-87
2023/06/03 00:11:40;;;;;;;19.60;8.00;;;;;;;;;;5075479;28;20308;-87
2023/06/03 00:14:07;;;;;;;17.83;7.17;;;;;;;;;;5075475;28;20202;-88
2023/06/03 00:16:35;;;;;;;14.97;7.03;;;;;;;;;;5075767;28;20294;-87
2023/06/03 00:19:02;;;;;;;21.90;8.83;;;;;;;;;;5075847;28;20247;-87
2023/06/03 00:21:29;;;;;;;19.43;7.33;;;;;;;;;;5075199;28;20212;-87
2023/06/03 00:23:57;;;;;;;17.33;8.00;;;;;;;;;;5082282;28;20212;-87
2023/06/03 00:26:26;;;;;;;16.83;7.57;;;;;;;;;;5095854;28;20229;-87
2023/06/03 00:28:53;;;;;;;18.37;8.40;;;;;;;;;;5095774;28;20582;-87
2023/06/03 00:31:20;;;;;;;14.80;7.03;;;;;;;;;;5095521;28;20765;-87
2023/06/03 00:33:47;;;;;;;23.37;7.53;;;;;;;;;;5095630;28;20737;-88
2023/06/03 00:36:15;;;;;;;20.67;7.60;;;;;;;;;;5095031;28;20741;-87
2023/06/03 00:38:42;;;;;;;14.93;6.73;;;;;;;;;;5095129;28;20278;-86
2023/06/03 00:41:09;;;;;;;13.50;7.30;;;;;;;;;;5095581;28;20647;-87
2023/06/03 00:43:38;;;;;;;16.60;7.33;;;;;;;;;;5095396;28;20199;-87
2023/06/03 00:46:05;;;;;;;16.63;6.67;;;;;;;;;;5095368;28;20278;-86
2023/06/03 00:48:33;;;;;;;19.03;7.60;;;;;;;;;;5095086;28;20238;-86
2023/06/03 00:51:00;;;;;;;12.80;6.53;;;;;;;;;;5094573;28;20294;-86
2023/06/03 00:53:27;;;;;;;17.97;7.83;;;;;;;;;;5095013;28;20279;-87
2023/06/03 00:55:54;;;;;;;16.90;6.93;;;;;;;;;;5095059;28;20606;-87
2023/06/03 00:58:21;;;;;;;17.90;7.33;;;;;;;;;;5095015;28;20194;-86
2023/06/03 01:00:50;;;;;;;15.73;7.87;;;;;;;;;;5094831;28;20202;-88
2023/06/03 01:03:19;;;;;;;14.13;7.30;;;;;;;;;;5095304;28;20289;-86
2023/06/03 01:05:49;;;;;;;18.30;7.50;;;;;;;;;;5094337;28;20191;-86
2023/06/03 01:08:21;;;;;;;17.10;7.40;;;;;;;;;;5094668;28;20201;-86
2023/06/03 01:10:51;;;;;;;17.50;7.50;;;;;;;;;;5094755;28;20339;-87
2023/06/03 01:13:22;;;;;;;16.90;7.60;;;;;;;;;;5094792;28;20275;-86
2023/06/03 01:15:54;;;;;;;16.77;7.40;;;;;;;;;;5094908;28;20202;-86
2023/06/03 01:18:21;;;;;;;16.30;7.00;;;;;;;;;;5094871;28;20576;-87
2023/06/03 01:20:49;;;;;;;13.43;7.00;;;;;;;;;;5094270;28;20285;-86
2023/06/03 01:23:23;;;;;;;12.53;6.87;;;;;;;;;;5094479;28;20299;-87
2023/06/03 01:25:52;;;;;;;20.07;7.00;;;;;;;;;;5094587;28;20253;-86
2023/06/03 01:28:20;;;;;;;18.07;7.43;;;;;;;;;;5094319;28;20730;-87
2023/06/03 01:30:48;;;;;;;20.97;7.83;;;;;;;;;;5094406;28;20279;-86
2023/06/03 01:33:15;;;;;;;18.77;8.03;;;;;;;;;;5094390;28;20231;-87
2023/06/03 01:35:43;;;;;;;19.17;7.33;;;;;;;;;;5094097;28;20221;-87
2023/06/03 01:38:10;;;;;;;13.53;7.53;;;;;;;;;;5094199;28;20245;-86
2023/06/03 01:40:39;;;;;;;14.53;7.57;;;;;;;;;;5094140;28;20730;-87
2023/06/03 01:43:07;;;;;;;14.60;7.03;;;;;;;;;;5094534;28;20195;-87
2023/06/03 01:45:34;;;;;;;18.57;7.67;;;;;;;;;;5094423;28;20231;-86
2023/06/03 01:48:01;;;;;;;14.27;7.03;;;;;;;;;;5094400;28;20323;-87
2023/06/03 01:50:29;;;;;;;14.17;7.43;;;;;;;;;;5093952;28;20658;-88
2023/06/03 01:52:56;;;;;;;19.13;8.20;;;;;;;;;;5094915;28;20258;-88
2023/06/03 01:55:24;;;;;;;14.87;7.83;;;;;;;;;;5095242;28;20255;-87
2023/06/03 01:57:53;;;;;;;17.90;7.47;;;;;;;;;;5095615;28;20201;-87
2023/06/03 02:00:20;;;;;;;17.23;7.57;;;;;;;;;;5095533;28;20612;-87
2023/06/03 02:02:47;;;;;;;18.37;8.63;;;;;;;;;;5093730;28;20188;-87
2023/06/03 02:05:15;;;;;;;13.10;7.70;;;;;;;;;;5094144;28;20599;-87
2023/06/03 02:07:42;;;;;;;21.73;7.47;;;;;;;;;;5094623;28;21270;-87
2023/06/03 02:10:09;;;;;;;20.20;8.00;;;;;;;;;;5093957;28;20699;-87
2023/06/03 02:12:36;;;;;;;15.43;7.87;;;;;;;;;;5096076;28;20240;-87
2023/06/03 02:15:07;;;;;;;19.33;7.90;;;;;;;;;;5095921;28;20567;-87
2023/06/03 02:17:34;;;;;;;14.30;7.30;;;;;;;;;;5092889;28;20198;-87
2023/06/03 02:20:01;;;;;;;21.63;7.90;;;;;;;;;;5093418;28;20200;-87
2023/06/03 02:22:28;;;;;;;21.07;8.10;;;;;;;;;;5093360;28;20219;-86
2023/06/03 02:24:57;;;;;;;17.27;7.83;;;;;;;;;;5093631;28;20198;-87
2023/06/03 02:27:24;;;;;;;18.00;7.97;;;;;;;;;;5093598;28;20222;-87
2023/06/03 02:29:52;;;;;;;15.97;8.70;;;;;;;;;;5093470;28;20196;-87
2023/06/03 02:32:20;;;;;;;19.73;8.23;;;;;;;;;;5093101;28;20218;-87
2023/06/03 02:34:47;;;;;;;17.27;8.17;;;;;;;;;;5080763;28;20201;-86
2023/06/03 02:37:15;;;;;;;19.67;8.83;;;;;;;;;;5072937;28;20278;-87
2023/06/03 02:39:43;;;;;;;18.00;9.07;;;;;;;;;;5073036;28;20281;-87
2023/06/03 02:42:11;;;;;;;19.60;8.47;;;;;;;;;;5073321;28;20215;-89
2023/06/03 02:44:38;;;;;;;19.13;9.20;;;;;;;;;;5073528;28;20202;-88
2023/06/03 02:47:05;;;;;;;21.50;8.73;;;;;;;;;;5072546;28;20313;-87
2023/06/03 02:49:36;;;;;;;20.00;8.73;;;;;;;;;;5073354;28;20290;-88
2023/06/03 02:52:03;;;;;;;20.80;8.90;;;;;;;;;;5072913;28;20720;-86
2023/06/03 02:54:30;;;;;;;19.70;8.80;;;;;;;;;;5072619;28;20199;-86
2023/06/03 02:56:57;;;;;;;17.33;8.87;;;;;;;;;;5072853;28;20194;-87
2023/06/03 02:59:25;;;;;;;19.43;9.00;;;;;;;;;;5073027;28;20223;-87
2023/06/03 03:01:52;;;;;;;21.23;9.37;;;;;;;;;;5072483;28;20294;-87
2023/06/03 03:04:20;;;;;;;20.37;9.20;;;;;;;;;;5073244;28;20195;-87
2023/06/03 03:06:49;;;;;;;19.13;8.83;;;;;;;;;;5073086;28;20199;-87
2023/06/03 03:09:17;;;;;;;17.53;9.80;;;;;;;;;;5073126;28;20310;-87
2023/06/03 03:11:44;;;;;;;18.83;9.47;;;;;;;;;;5072579;28;20277;-87
2023/06/03 03:14:11;;;;;;;18.40;9.73;;;;;;;;;;5075567;28;20274;-87
2023/06/03 03:16:39;;;;;;;22.87;9.50;;;;;;;;;;5092862;28;20191;-87
2023/06/03 03:19:06;;;;;;;20.87;10.50;;;;;;;;;;5093282;28;20187;-86
2023/06/03 03:21:33;;;;;;;20.03;10.10;;;;;;;;;;5092498;28;20267;-86
2023/06/03 03:24:02;;;;;;;20.60;10.93;;;;;;;;;;5092641;28;20229;-87
2023/06/03 03:26:30;;;;;;;24.43;10.47;;;;;;;;;;5092763;28;20214;-87
2023/06/03 03:28:57;;;;;;;23.23;10.63;;;;;;;;;;5093120;28;20199;-87
2023/06/03 03:31:26;;;;;;;23.03;10.77;;;;;;;;;;5095800;28;20273;-86
2023/06/03 03:33:53;;;;;;;21.83;10.77;;;;;;;;;;5096656;28;20210;-87
2023/06/03 03:36:22;;;;;;;21.17;10.80;;;;;;;;;;5096820;28;20286;-86
2023/06/03 03:38:52;;;;;;;25.47;11.30;;;;;;;;;;5096656;28;20240;-86
2023/06/03 03:41:21;;;;;;;17.93;10.30;;;;;;;;;;5096628;28;20205;-86
2023/06/03 03:43:51;;;;;;;28.63;11.80;;;;;;;;;;5096616;28;20195;-87
2023/06/03 03:46:18;;;;;;;24.93;10.93;;;;;;;;;;5096233;28;20195;-87
2023/06/03 03:48:45;;;;;;;25.37;11.60;;;;;;;;;;5096024;28;20253;-86
2023/06/03 03:51:13;;;;;;;19.37;11.20;;;;;;;;;;5096151;28;20187;-86
2023/06/03 03:53:47;;;;;;;20.33;11.33;;;;;;;;;;5096313;28;20313;-86
2023/06/03 03:56:18;;;;;;;26.37;11.20;;;;;;;;;;5096239;28;20202;-87
2023/06/03 03:58:48;;;;;;;21.07;11.17;;;;;;;;;;5095833;28;20182;-86
2023/06/03 04:01:17;;;;;;;21.03;11.23;;;;;;;;;;5096011;28;20199;-85
2023/06/03 04:03:46;;;;;;;25.00;11.63;;;;;;;;;;5096107;28;20612;-87
2023/06/03 04:06:14;;;;;;;23.00;11.40;;;;;;;;;;5095999;28;20293;-87
2023/06/03 04:08:45;;;;;;;24.30;11.90;;;;;;;;;;5096018;28;20186;-86
2023/06/03 04:11:18;;;;;;;27.03;12.20;;;;;;;;;;5096259;28;20581;-88
2023/06/03 04:13:47;;;;;;;21.87;12.60;;;;;;;;;;5095890;28;20272;-87
2023/06/03 04:16:22;;;;;;;23.87;12.80;;;;;;;;;;5096207;28;20296;-88
2023/06/03 04:18:49;;;;;;;31.27;13.47;;;;;;;;;;5095926;28;20714;-87
2023/06/03 04:21:20;;;;;;;26.80;13.77;;;;;;;;;;5096125;28;20260;-86
2023/06/03 04:23:48;;;;;;;26.53;13.67;;;;;;;;;;5096099;28;20241;-87
2023/06/03 04:26:16;;;;;;;30.17;14.23;;;;;;;;;;5095346;28;20293;-86
2023/06/03 04:28:43;;;;;;;27.63;13.53;;;;;;;;;;5095303;28;20659;-86
2023/06/03 04:31:12;;;;;;;28.60;13.40;;;;;;;;;;5095278;28;20254;-87
2023/06/03 04:33:39;;;;;;;26.07;13.27;;;;;;;;;;5095500;28;20215;-86
2023/06/03 04:36:06;;;;;;;24.30;14.30;;;;;;;;;;5095992;28;20277;-86
2023/06/03 04:38:34;;;;;;;30.37;14.43;;;;;;;;;;5094959;28;20186;-87
2023/06/03 04:41:02;;;;;;;26.53;14.10;;;;;;;;;;5095573;28;20256;-87
2023/06/03 04:43:29;;;;;;;26.63;14.40;;;;;;;;;;5095077;28;20194;-87
2023/06/03 04:45:56;;;;;;;25.03;14.53;;;;;;;;;;5095658;28;20226;-87
2023/06/03 04:48:25;;;;;;;28.47;14.83;;;;;;;;;;5095326;28;20237;-87
2023/06/03 04:50:52;;;;;;;23.47;15.13;;;;;;;;;;5094567;28;20780;-86
2023/06/03 04:53:19;;;;;;;26.47;15.20;;;;;;;;;;5095251;28;20324;-87
2023/06/03 04:55:46;;;;;;;28.80;15.77;;;;;;;;;;5095374;28;20219;-88
2023/06/03 04:58:18;;;;;;;26.83;15.70;;;;;;;;;;5094789;28;20244;-87
2023/06/03 05:00:48;;;;;;;26.13;15.50;;;;;;;;;;5095286;28;20218;-87
2023/06/03 05:03:16;;;;;;;25.87;15.47;;;;;;;;;;5095310;28;20195;-87
2023/06/03 05:05:45;;;;;;;29.80;16.70;;;;;;;;;;5095233;28;20229;-87
2023/06/03 05:08:12;;;;;;;23.60;15.60;;;;;;;;;;5094897;28;20191;-87
2023/06/03 05:10:40;;;;;;;26.60;16.53;;;;;;;;;;5095387;28;20261;-87
2023/06/03 05:13:07;;;;;;;32.13;16.80;;;;;;;;;;5094407;28;20224;-86
2023/06/03 05:15:34;;;;;;;30.20;16.63;;;;;;;;;;5094861;28;20227;-86
2023/06/03 05:18:02;;;;;;;28.73;16.83;;;;;;;;;;5094352;28;20269;-86
2023/06/03 05:20:29;;;;;;;35.07;17.10;;;;;;;;;;5094365;28;20787;-87
2023/06/03 05:22:58;;;;;;;27.07;17.20;;;;;;;;;;5094698;28;20220;-87
2023/06/03 05:25:25;;;;;;;26.07;16.27;;;;;;;;;;5094714;28;20192;-87
2023/06/03 05:27:52;;;;;;;29.10;17.80;;;;;;;;;;5094406;28;20216;-88
2023/06/03 05:30:19;;;;;;;30.43;16.57;;;;;;;;;;5094741;28;20273;-88
2023/06/03 05:32:46;;;;;;;25.50;15.63;;;;;;;;;;5094876;28;20245;-87
2023/06/03 05:35:14;;;;;;;25.77;15.50;;;;;;;;;;5094476;28;20288;-87
2023/06/03 05:37:41;;;;;;;23.10;14.50;;;;;;;;;;5094448;28;20277;-87
2023/06/03 05:40:10;;;;;;;22.90;15.33;;;;;;;;;;5094007;28;20195;-88
2023/06/03 05:42:38;;;;;;;26.87;15.73;;;;;;;;;;5094343;28;20187;-87
2023/06/03 05:45:05;;;;;;;25.40;15.13;;;;;;;;;;5094371;28;20293;-87
2023/06/03 05:47:32;;;;;;;23.47;15.60;;;;;;;;;;5094151;28;20983;-87
2023/06/03 05:49:59;;;;;;;25.07;16.17;;;;;;;;;;5093860;28;20222;-87
2023/06/03 05:52:27;;;;;;;25.87;16.00;;;;;;;;;;5093338;28;20930;-87
2023/06/03 05:54:54;;;;;;;24.93;15.97;;;;;;;;;;5093555;28;20265;-87
2023/06/03 05:57:22;;;;;;;23.73;14.43;;;;;;;;;;5094091;28;20570;-86
2023/06/03 05:59:50;;;;;;;23.43;15.07;;;;;;;;;;5094230;28;20218;-87
2023/06/03 06:02:18;;;;;;;19.30;15.20;;;;;;;;;;5093775;28;20190;-87
2023/06/03 06:04:45;;;;;;;26.13;15.33;;;;;;;;;;5093317;28;20198;-86
2023/06/03 06:07:13;;;;;;;22.20;14.50;;;;;;;;;;5093208;28;20195;-86
2023/06/03 06:09:40;;;;;;;26.00;15.40;;;;;;;;;;5093307;28;20293;-87
2023/06/03 06:12:07;;;;;;;21.93;14.07;;;;;;;;;;5093160;28;20281;-86
2023/06/03 06:14:37;;;;;;;22.93;13.70;;;;;;;;;;5093081;28;20798;-86
2023/06/03 06:17:04;;;;;;;23.23;13.87;;;;;;;;;;5093044;28;20687;-86
2023/06/03 06:19:32;;;;;;;23.30;13.83;;;;;;;;;;5092944;28;20226;-86
2023/06/03 06:21:59;;;;;;;20.77;13.97;;;;;;;;;;5092845;28;20293;-86
2023/06/03 06:24:26;;;;;;;19.57;13.03;;;;;;;;;;5092702;28;20206;-85
2023/06/03 06:26:53;;;;;;;19.33;13.13;;;;;;;;;;5093043;28;20230;-87
2023/06/03 06:29:20;;;;;;;19.80;13.82;;;;;;;;;;5092901;28;20637;-85
2023/06/03 06:31:51;;;;;;;21.65;13.18;;;;;;;;;;5092956;28;20281;-86
2023/06/03 06:34:18;;;;;;;19.58;12.43;;;;;;;;;;5092523;28;20573;-86
2023/06/03 06:36:49;;;;;;;20.83;12.85;;;;;;;;;;5092789;28;20678;-85
2023/06/03 06:39:33;;;;;;;20.98;12.55;;;;;;;;;;5092056;28;20221;-85
2023/06/03 06:42:09;;;;;;;20.83;13.10;;;;;;;;;;5092921;28;20281;-86
2023/06/03 06:44:39;;;;;;;21.00;12.73;;;;;;;;;;5092642;28;20682;-87
2023/06/03 06:47:07;;;;;;;17.77;12.35;;;;;;;;;;5093049;28;20321;-86
2023/06/03 06:49:37;;;;;;;20.25;13.02;;;;;;;;;;5093093;28;20218;-88
2023/06/03 06:52:04;;;;;;;20.50;12.88;;;;;;;;;;5091959;28;20218;-86
2023/06/03 06:54:31;;;;;;;18.95;12.85;;;;;;;;;;5091743;28;20226;-85
2023/06/03 06:56:58;;;;;;;19.98;12.80;;;;;;;;;;5091750;28;20688;-85
2023/06/03 06:59:25;;;;;;;19.60;13.52;;;;;;;;;;5091486;28;20692;-85
2023/06/03 07:01:53;;;;;;;18.85;12.57;;;;;;;;;;5092130;28;20226;-86
2023/06/03 07:04:21;;;;;;;16.05;12.75;;;;;;;;;;5093495;28;20230;-85
2023/06/03 07:06:48;;;;;;;18.80;12.90;;;;;;;;;;5095984;28;20198;-84
2023/06/03 07:09:16;;;;;;;16.83;13.10;;;;;;;;;;5095484;28;20238;-84
2023/06/03 07:11:44;;;;;;;19.17;12.73;;;;;;;;;;5095946;28;20205;-85
2023/06/03 07:14:11;;;;;;;18.85;12.30;;;;;;;;;;5095830;28;20272;-86
2023/06/03 07:16:39;;;;;;;20.67;13.52;;;;;;;;;;5096199;28;20194;-85
2023/06/03 07:19:07;;;;;;;16.52;12.20;;;;;;;;;;5096124;28;20287;-86
2023/06/03 07:21:35;;;;;;;17.88;12.05;;;;;;;;;;5095543;28;20305;-86
2023/06/03 07:24:02;;;;;;;19.00;12.90;;;;;;;;;;5095019;28;20737;-85
2023/06/03 07:26:31;;;;;;;14.77;12.10;;;;;;;;;;5095719;28;20293;-85
2023/06/03 07:28:59;;;;;;;19.00;12.90;;;;;;;;;;5095518;28;20194;-84
2023/06/03 07:31:26;;;;;;;16.77;12.27;;;;;;;;;;5095232;28;20198;-85
2023/06/03 07:33:54;;;;;;;18.33;12.85;;;;;;;;;;5095253;28;20261;-85
2023/06/03 07:36:22;;;;;;;15.45;12.05;;;;;;;;;;5095323;28;20282;-86
2023/06/03 07:39:02;;;;;;;16.80;12.60;;;;;;;;;;5095782;28;20289;-85
2023/06/03 07:41:37;;;;;;;17.08;11.93;;;;;;;;;;5095386;28;20190;-86
2023/06/03 07:44:06;;;;;;;19.15;12.35;;;;;;;;;;5096224;28;20288;-87
2023/06/03 07:46:37;;;;;;;17.70;12.35;;;;;;;;;;5095791;28;20190;-85
2023/06/03 07:49:04;;;;;;;18.50;12.20;;;;;;;;;;5095449;28;20206;-87
2023/06/03 07:51:32;;;;;;;19.85;12.23;;;;;;;;;;5094684;28;20887;-86
2023/06/03 07:54:00;;;;;;;15.77;11.93;;;;;;;;;;5095496;28;20664;-85
2023/06/03 07:56:29;;;;;;;18.85;12.32;;;;;;;;;;5095101;28;20230;-84
2023/06/03 07:58:57;;;;;;;16.70;12.88;;;;;;;;;;5096605;28;20215;-87
2023/06/03 08:01:25;;;;;;;14.65;12.02;;;;;;;;;;5094571;28;20252;-83
2023/06/03 08:03:53;;;;;;;18.60;13.30;;;;;;;;;;5095704;28;20206;-83
2023/06/03 08:06:22;;;;;;;18.40;12.63;;;;;;;;;;5095347;28;20269;-87
2023/06/03 08:08:49;;;;;;;16.50;12.48;;;;;;;;;;5092284;28;20756;-85
2023/06/03 08:11:17;;;;;;;18.98;13.57;;;;;;;;;;5094683;28;20290;-84
2023/06/03 08:13:44;;;;;;;16.92;12.75;;;;;;;;;;5095124;28;20222;-86
2023/06/03 08:16:15;;;;;;;21.65;13.32;;;;;;;;;;5093755;28;20233;-85
2023/06/03 08:18:43;;;;;;;15.85;12.63;;;;;;;;;;5094430;28;20195;-85
2023/06/03 08:21:11;;;;;;;16.63;12.18;;;;;;;;;;5093876;28;20198;-85
2023/06/03 08:23:38;;;;;;;16.45;12.45;;;;;;;;;;5094673;28;20234;-85
2023/06/03 08:26:05;;;;;;;18.35;12.30;;;;;;;;;;5093832;28;20625;-84
2023/06/03 08:28:34;;;;;;;17.00;12.55;;;;;;;;;;5093811;28;20667;-85
2023/06/03 08:31:01;;;;;;;16.80;13.00;;;;;;;;;;5094735;28;20279;-85
2023/06/03 08:33:28;;;;;;;17.33;13.63;;;;;;;;;;5093613;28;20651;-84
2023/06/03 08:35:55;;;;;;;19.38;14.65;;;;;;;;;;5093933;28;20663;-89
2023/06/03 08:38:22;;;;;;;17.10;12.13;;;;;;;;;;5095717;28;20658;-88
2023/06/03 08:40:50;;;;;;;19.00;14.63;;;;;;;;;;5095440;28;20232;-89
2023/06/03 08:43:21;;;;;;;19.88;13.88;;;;;;;;;;5095870;28;20293;-87
2023/06/03 08:45:54;;;;;;;18.10;12.90;;;;;;;;;;5095828;28;20206;-88
2023/06/03 08:48:25;;;;;;;18.25;14.48;;;;;;;;;;5095331;28;20269;-88
2023/06/03 08:50:57;;;;;;;19.75;14.35;;;;;;;;;;5095100;28;20199;-89
2023/06/03 08:53:24;;;;;;;19.80;13.88;;;;;;;;;;5095037;28;20193;-89
2023/06/03 08:55:52;;;;;;;17.67;14.50;;;;;;;;;;5093229;28;20205;-88
2023/06/03 08:58:20;;;;;;;20.85;13.75;;;;;;;;;;5093856;28;20754;-88
2023/06/03 09:00:48;;;;;;;19.25;14.10;;;;;;;;;;5095453;28;20202;-87
2023/06/03 09:03:18;;;;;;;19.05;14.07;;;;;;;;;;5094541;28;20194;-89
2023/06/03 09:05:45;;;;;;;19.60;14.45;;;;;;;;;;5094988;28;20198;-87
2023/06/03 09:08:14;;;;;;;20.48;14.07;;;;;;;;;;5095106;28;20586;-88
2023/06/03 09:10:41;;;;;;;18.23;13.75;;;;;;;;;;5094984;28;20222;-89
2023/06/03 09:13:09;;;;;;;19.70;15.02;;;;;;;;;;5094946;28;20191;-88
2023/06/03 09:15:38;;;;;;;21.88;15.00;;;;;;;;;;5100248;28;20222;-87
2023/06/03 09:18:05;;;;;;;20.55;13.05;;;;;;;;;;5094791;28;20613;-88
2023/06/03 09:20:36;;;;;;;19.83;14.10;;;;;;;;;;5094276;28;20202;-88
2023/06/03 09:23:03;;;;;;;19.65;14.13;;;;;;;;;;5094310;28;20191;-88
2023/06/03 09:25:31;;;;;;;17.85;14.23;;;;;;;;;;5093934;28;20195;-88
2023/06/03 09:27:58;;;;;;;17.77;13.73;;;;;;;;;;5091841;28;20214;-89
2023/06/03 09:30:25;;;;;;;17.63;13.30;;;;;;;;;;5094632;28;20194;-88
2023/06/03 09:32:53;;;;;;;18.05;13.43;;;;;;;;;;5093934;28;20194;-90
2023/06/03 09:35:21;;;;;;;18.40;13.55;;;;;;;;;;5095380;28;20237;-87
2023/06/03 09:38:00;;;;;;;18.02;13.63;;;;;;;;;;5094873;28;20250;-88
2023/06/03 09:40:28;;;;;;;19.83;12.93;;;;;;;;;;5094631;28;20738;-89
2023/06/03 09:42:55;;;;;;;18.73;12.68;;;;;;;;;;5094609;28;20624;-89
2023/06/03 09:45:24;;;;;;;16.45;12.65;;;;;;;;;;5101433;28;20205;-89
2023/06/03 09:47:51;;;;;;;17.02;12.38;;;;;;;;;;5101105;28;20238;-90
2023/06/03 09:50:18;;;;;;;17.05;13.43;;;;;;;;;;5101177;28;20217;-89
2023/06/03 09:52:45;;;;;;;17.00;12.60;;;;;;;;;;5082918;28;20280;-87
2023/06/03 09:55:15;;;;;;;16.73;11.73;;;;;;;;;;5077577;28;20262;-89
2023/06/03 09:57:42;;;;;;;15.75;11.77;;;;;;;;;;5073342;28;20191;-85
2023/06/03 10:00:11;;;;;;;18.25;12.52;;;;;;;;;;5073146;28;20274;-88
2023/06/03 10:02:39;;;;;;;16.77;11.55;;;;;;;;;;5077127;28;20186;-90
2023/06/03 10:05:06;;;;;;;18.23;13.45;;;;;;;;;;4740807;28;10000050;-89
2023/06/03 10:07:34;;;;;;;18.48;13.32;;;;;;;;;;5091926;28;20281;-88
2023/06/03 10:10:05;;;;;;;16.90;13.05;;;;;;;;;;5092636;28;20213;-88
2023/06/03 10:12:34;;;;;;;15.20;11.70;;;;;;;;;;5080172;28;20202;-84
2023/06/03 10:15:01;;;;;;;15.88;12.52;;;;;;;;;;5077119;28;20231;-89
2023/06/03 10:17:28;;;;;;;14.52;11.27;;;;;;;;;;5085344;28;20281;-85
2023/06/03 10:19:56;;;;;;;19.02;11.27;;;;;;;;;;5095996;28;20277;-89
2023/06/03 10:22:23;;;;;;;14.30;10.65;;;;;;;;;;5104157;28;20201;-93
2023/06/03 10:24:51;;;;;;;16.38;11.60;;;;;;;;;;5105194;28;20190;-85
2023/06/03 10:27:20;;;;;;;16.00;10.57;;;;;;;;;;5091185;28;20613;-86
2023/06/03 10:29:49;;;;;;;14.43;10.85;;;;;;;;;;5089048;28;20675;-91
2023/06/03 10:32:17;;;;;;;13.10;11.23;;;;;;;;;;5093823;28;20248;-92
2023/06/03 10:34:44;;;;;;;13.50;10.45;;;;;;;;;;5092130;28;20601;-88
2023/06/03 10:37:13;;;;;;;15.57;10.80;;;;;;;;;;5093019;28;20226;-88
2023/06/03 10:39:41;;;;;;;13.88;9.93;;;;;;;;;;5092603;28;20228;-88
2023/06/03 10:42:09;;;;;;;11.80;10.52;;;;;;;;;;5092603;28;20294;-90
2023/06/03 10:44:37;;;;;;;12.98;10.07;;;;;;;;;;5093270;28;20289;-92
2023/06/03 10:47:10;;;;;;;13.52;9.98;;;;;;;;;;5093496;28;20321;-93
2023/06/03 10:49:40;;;;;;;13.73;9.73;;;;;;;;;;5092207;28;20980;-92
2023/06/03 10:52:21;;;;;;;10.73;8.80;;;;;;;;;;5093065;28;20286;-94
2023/06/03 10:54:52;;;;;;;14.50;9.52;;;;;;;;;;5084478;28;20221;-91
2023/06/03 10:57:21;;;;;;;14.10;9.80;;;;;;;;;;5088377;28;20459;-91
2023/06/03 10:59:49;;;;;;;14.82;9.18;;;;;;;;;;5092578;28;20222;-90
2023/06/03 11:02:17;;;;;;;12.10;8.73;;;;;;;;;;5092938;28;20241;-92
2023/06/03 11:04:44;;;;;;;14.98;8.70;;;;;;;;;;5092136;28;20289;-92
2023/06/03 11:07:30;;;;;;;11.50;8.77;;;;;;;;;;5089619;28;20194;-91
2023/06/03 11:09:57;;;;;;;14.05;8.57;;;;;;;;;;5080501;28;20362;-95
2023/06/03 11:12:44;;;;;;;11.52;8.75;;;;;;;;;;5094812;28;20704;-90
2023/06/03 11:15:12;;;;;;;10.82;8.13;;;;;;;;;;5093343;28;20252;-88
2023/06/03 11:17:42;;;;;;;12.60;8.90;;;;;;;;;;5093789;28;20278;-87
2023/06/03 11:20:09;;;;;;;12.82;8.18;;;;;;;;;;5093798;28;20187;-91
2023/06/03 11:22:43;;;;;;;10.15;7.28;;;;;;;;;;5090468;28;20671;-90
2023/06/03 11:25:27;;;;;;;13.73;7.75;;;;;;;;;;5082290;28;20229;-90
2023/06/03 11:27:54;;;;;;;10.95;7.10;;;;;;;;;;5086651;28;20206;-89
2023/06/03 11:30:21;;;;;;;10.73;7.28;;;;;;;;;;5086430;28;20301;-91
2023/06/03 11:33:09;;;;;;;8.00;6.95;;;;;;;;;;5092371;28;20194;-88
2023/06/03 11:35:37;;;;;;;11.57;7.40;;;;;;;;;;5092766;28;20309;-89
2023/06/03 11:38:04;;;;;;;9.32;7.00;;;;;;;;;;5093073;28;20214;-90
2023/06/03 11:40:44;;;;;;;9.70;6.65;;;;;;;;;;5092826;28;20218;-89
2023/06/03 11:43:11;;;;;;;8.77;7.10;;;;;;;;;;5092930;28;20636;-91
2023/06/03 11:45:38;;;;;;;10.32;7.20;;;;;;;;;;5079412;28;20712;-89
2023/06/03 11:48:09;;;;;;;10.90;7.35;;;;;;;;;;5092737;28;20888;-94
2023/06/03 11:50:45;;;;;;;10.40;7.00;;;;;;;;;;5095591;28;20187;-94
2023/06/03 11:53:27;;;;;;;9.73;6.43;;;;;;;;;;5098979;28;20678;-90
2023/06/03 11:56:01;;;;;;;10.57;7.28;;;;;;;;;;5096654;28;20324;-92
2023/06/03 11:58:29;;;;;;;9.15;7.22;;;;;;;;;;5096664;28;20248;-88
2023/06/03 12:01:05;;;;;;;9.98;7.60;;;;;;;;;;5095881;28;20194;-84
2023/06/03 12:03:34;;;;;;;10.55;6.82;;;;;;;;;;5096547;28;20439;-86
2023/06/03 12:06:03;;;;;;;10.55;6.80;;;;;;;;;;5095900;28;20377;-88
2023/06/03 12:08:43;;;;;;;9.32;6.63;;;;;;;;;;5095196;28;20194;-90
2023/06/03 12:11:10;;;;;;;9.02;7.15;;;;;;;;;;5096471;28;20218;-88
2023/06/03 12:13:42;;;;;;;8.90;6.25;;;;;;;;;;5094047;28;20222;-87
2023/06/03 12:16:09;;;;;;;9.02;6.70;;;;;;;;;;5099283;28;20325;-89
2023/06/03 12:18:39;;;;;;;10.60;7.05;;;;;;;;;;5096101;28;20194;-90
2023/06/03 12:21:22;;;;;;;9.23;7.20;;;;;;;;;;5093232;28;20202;-92
2023/06/03 12:23:49;;;;;;;9.63;7.00;;;;;;;;;;5094353;28;20636;-87
2023/06/03 12:26:16;;;;;;;10.02;7.47;;;;;;;;;;5093307;28;20278;-86
2023/06/03 12:28:43;;;;;;;12.02;7.80;;;;;;;;;;5095471;28;20226;-86
2023/06/03 12:31:14;;;;;;;10.10;7.00;;;;;;;;;;5091258;28;20281;-86
2023/06/03 12:33:45;;;;;;;8.40;6.63;;;;;;;;;;5092187;28;20281;-84
2023/06/03 12:36:13;;;;;;;8.55;7.13;;;;;;;;;;5092122;28;20254;-85
2023/06/03 12:38:57;;;;;;;13.07;7.15;;;;;;;;;;5093160;28;20209;-83
2023/06/03 12:41:24;;;;;;;11.00;6.53;;;;;;;;;;5090761;28;20934;-87
2023/06/03 12:43:59;;;;;;;9.75;7.68;;;;;;;;;;5091882;28;20198;-85
2023/06/03 12:46:26;;;;;;;10.70;7.40;;;;;;;;;;5085996;28;20216;-83
2023/06/03 12:48:57;;;;;;;10.15;6.55;;;;;;;;;;5093505;28;20725;-79
2023/06/03 12:51:24;;;;;;;11.07;7.05;;;;;;;;;;5093075;28;20222;-81
2023/06/03 12:53:55;;;;;;;10.63;6.60;;;;;;;;;;5093038;28;20201;-81
2023/06/03 12:56:23;;;;;;;10.52;6.70;;;;;;;;;;5092743;28;20226;-81
2023/06/03 12:58:51;;;;;;;10.70;7.05;;;;;;;;;;5092688;28;20571;-81
2023/06/03 13:01:19;;;;;;;12.05;7.28;;;;;;;;;;5092908;28;20199;-82
2023/06/03 13:03:46;;;;;;;8.90;7.03;;;;;;;;;;5093068;28;20643;-81
2023/06/03 13:06:14;;;;;;;8.32;6.93;;;;;;;;;;5092525;28;20671;-80
2023/06/03 13:08:42;;;;;;;10.82;7.45;;;;;;;;;;5092514;28;20290;-80
2023/06/03 13:11:10;;;;;;;8.35;6.82;;;;;;;;;;5092555;28;20228;-81
2023/06/03 13:13:37;;;;;;;9.20;6.35;;;;;;;;;;5092476;28;20294;-81
2023/06/03 13:16:04;;;;;;;8.90;6.70;;;;;;;;;;5093004;28;20230;-81
2023/06/03 13:18:31;;;;;;;10.02;6.47;;;;;;;;;;5092649;28;20294;-80
2023/06/03 13:20:58;;;;;;;11.45;6.80;;;;;;;;;;5092441;28;20218;-80
2023/06/03 13:23:29;;;;;;;11.23;7.20;;;;;;;;;;5092788;28;20645;-84
2023/06/03 13:25:57;;;;;;;10.30;7.05;;;;;;;;;;5092008;28;20570;-80
2023/06/03 13:28:24;;;;;;;8.40;6.03;;;;;;;;;;5091097;28;20194;-89
2023/06/03 13:30:51;;;;;;;10.80;7.30;;;;;;;;;;5093160;28;20468;-86
2023/06/03 13:33:18;;;;;;;9.55;6.82;;;;;;;;;;5092462;28;20277;-87
2023/06/03 13:35:46;;;;;;;10.57;6.82;;;;;;;;;;5093325;28;20312;-87
2023/06/03 13:38:13;;;;;;;16.42;8.15;;;;;;;;;;5092480;28;20762;-87
2023/06/03 13:40:42;;;;;;;9.38;7.30;;;;;;;;;;5092536;28;20269;-87
2023/06/03 13:43:10;;;;;;;8.40;6.68;;;;;;;;;;5093159;28;20279;-86
2023/06/03 13:45:37;;;;;;;10.20;6.70;;;;;;;;;;5092812;28;20289;-85
2023/06/03 13:48:04;;;;;;;14.50;8.55;;;;;;;;;;5091381;28;20218;-87
2023/06/03 13:50:31;;;;;;;8.77;6.60;;;;;;;;;;5093430;28;20244;-88
2023/06/03 13:52:59;;;;;;;11.07;6.82;;;;;;;;;;5093422;28;20233;-88
2023/06/03 13:55:26;;;;;;;9.85;6.90;;;;;;;;;;5092686;28;20221;-88
2023/06/03 13:57:54;;;;;;;9.48;6.72;;;;;;;;;;5093898;28;20226;-88
2023/06/03 14:00:22;;;;;;;9.38;7.03;;;;;;;;;;5093840;28;20629;-87
2023/06/03 14:02:49;;;;;;;9.60;6.75;;;;;;;;;;5094019;28;20190;-88
2023/06/03 14:05:16;;;;;;;9.00;6.72;;;;;;;;;;5092842;28;20195;-84
2023/06/03 14:07:43;;;;;;;9.35;6.50;;;;;;;;;;5091920;28;20650;-85
2023/06/03 14:10:11;;;;;;;9.88;6.30;;;;;;;;;;5092341;28;20799;-84
2023/06/03 14:12:38;;;;;;;8.80;6.72;;;;;;;;;;5092199;28;20199;-84
2023/06/03 14:15:07;;;;;;;10.50;6.60;;;;;;;;;;5091328;28;20302;-84
2023/06/03 14:17:35;;;;;;;8.23;6.50;;;;;;;;;;5092070;28;20747;-85
2023/06/03 14:20:02;;;;;;;10.77;6.10;;;;;;;;;;5091975;28;20191;-85
2023/06/03 14:22:30;;;;;;;9.10;6.45;;;;;;;;;;5091846;28;20290;-84
2023/06/03 14:24:57;;;;;;;8.77;6.05;;;;;;;;;;5092622;28;20195;-90
2023/06/03 14:27:24;;;;;;;8.45;6.75;;;;;;;;;;5093510;28;20226;-92
2023/06/03 14:29:52;;;;;;;7.93;6.57;;;;;;;;;;5094599;28;20296;-90
2023/06/03 14:32:20;;;;;;;7.55;6.15;;;;;;;;;;5090629;28;20210;-89